FMMI Airport Informations

Runway Information
Runway 11 Length 10171 ft width 148 ft
Elevation 4197 ft Threshold ft Heading 99
Runway 29 Length 10171 ft Width 148 ft
Elevation 4117 ft Threshold ft Heading 279
Airport Frequencies
Type TWR Name TWR Frequency 120.1 MHZ
Airport Navaids
Type VOR-DME Name Ivato Frequency 114500 KHZ
Airport Weather Information & NOTAM
ADDS - METARS form results

(0913 UTC 28 September 2022)
Data provider http://aviationweather.gov/metar/data/
 
METAR text: FMMI 280900Z 13011KT 100V180 9999 FEW024 23/08 Q1023 NOSIG
Conditions at: FMMI (ANTANANARIVO/IVA, MG) observed 0900 UTC 28 September 2022
Temperature: 23.0°C (73°F)
Dewpoint: 8.0°C (46°F) [RH = 38%]
Pressure (altimeter): 30.21 inches Hg (1023.0 mb)
Winds: from the SE (130 degrees) at 13 MPH (11 knots; 5.7 m/s)
Visibility: 6 or more miles (10+ km)
Ceiling: at least 12,000 feet AGL
Clouds: few clouds at 2400 feet AGL
Weather: no significant weather observed at this time

METAR text: FMMI 280830Z 15010KT 090V210 9999 FEW024 22/08 Q1023 NOSIG
Conditions at: FMMI (ANTANANARIVO/IVA, MG) observed 0830 UTC 28 September 2022
Temperature: 22.0°C (72°F)
Dewpoint: 8.0°C (46°F) [RH = 41%]
Pressure (altimeter): 30.21 inches Hg (1023.0 mb)
Winds: from the SSE (150 degrees) at 12 MPH (10 knots; 5.1 m/s)
Visibility: 6 or more miles (10+ km)
Ceiling: at least 12,000 feet AGL
Clouds: few clouds at 2400 feet AGL
Weather: no significant weather observed at this time

Forecast for: FMMI (ANTANANARIVO/IVA, MG)
Text: TAF FMMI 280500Z 2806/2912 15015G25KT 9999 FEW017 SCT020
Forecast period: 0600 UTC 28 September 2022 to 1200 UTC 29 September 2022
Forecast type: FROM: standard forecast or significant change
Winds: from the SSE (150 degrees) at 17 MPH (15 knots; 7.7 m/s)
gusting to 29 MPH (25 knots; 12.9 m/s)
Visibility: 6 or more miles (10+ km)
Ceiling: at least 12,000 feet AGL
Clouds: few clouds at 1700 feet AGL
scattered clouds at 2000 feet AGL
Weather: no significant weather forecast for this period